< Typhoon 197706 1977 Season Typhoon 197708 >
Typhoon 197707 (AMY)
General InformationTrack Information on Google MapsDetailed Wind Information || Disaster Info.ResourceGoogle EarthGE AnimationAtom FeedGeoJSON
Detalied Best Track (Time Zone = UTC)
Year Month Day Hour Lat. Long. Pressure (hPa) Wind (kt) Class Image Chart
1977 8 16 06 17.0 129.0 998 0 2 -- Chart
1977 8 16 12 17.5 129.0 998 0 2 -- Chart
1977 8 16 18 18.0 129.0 998 0 2 -- Chart
1977 8 17 00 18.5 129.0 998 0 2 -- Chart
1977 8 17 06 19.0 129.0 998 0 2 -- Chart
1977 8 17 12 19.5 129.0 998 0 2 -- Chart
1977 8 17 18 19.7 128.8 998 0 2 -- Chart
1977 8 18 00 20.0 128.0 998 35 3 -- Chart
1977 8 18 06 20.6 127.2 992 35 3 -- Chart
1977 8 18 12 21.0 126.5 992 35 3 -- Chart
1977 8 18 18 21.5 125.8 992 35 3 -- Chart
1977 8 19 00 22.0 125.0 992 35 3 -- Chart
1977 8 19 06 22.0 123.9 992 35 3 -- Chart
1977 8 19 12 21.7 122.7 992 35 3 -- Chart
1977 8 19 18 21.3 121.6 992 40 3 -- Chart
1977 8 20 00 21.2 121.1 992 40 3 -- Chart
1977 8 20 06 21.2 120.5 992 40 3 -- Chart
1977 8 20 12 21.2 119.9 985 40 3 -- Chart
1977 8 20 18 21.2 119.2 985 40 3 -- Chart
1977 8 21 00 21.5 119.0 985 35 3 -- Chart
1977 8 21 06 22.0 119.0 985 40 3 -- Chart
1977 8 21 12 22.6 119.0 985 40 3 -- Chart
1977 8 21 18 22.6 119.4 985 40 3 -- Chart
1977 8 22 00 22.5 119.7 985 40 3 -- Chart
1977 8 22 06 24.3 120.5 990 40 3 -- Chart
1977 8 22 12 25.3 122.4 990 40 3 -- Chart
1977 8 22 18 26.7 123.2 990 40 3 -- Chart
1977 8 23 00 28.3 124.0 990 40 3 -- Chart
1977 8 23 06 29.6 125.4 985 50 4 -- Chart
1977 8 23 12 31.0 127.0 985 60 4 -- Chart
1977 8 23 18 31.8 128.2 985 60 4 -- Chart
1977 8 24 00 32.3 129.3 985 50 4 -- Chart
1977 8 24 06 32.1 131.0 985 50 4 -- Chart
1977 8 24 12 32.6 132.6 992 40 3 -- Chart
1977 8 24 18 32.6 133.3 994 0 2 -- Chart
1977 8 25 00 32.5 134.0 996 0 2 -- Chart
1977 8 25 06 32.4 134.2 996 0 2 -- Chart
1977 8 25 12 32.3 134.3 1000 0 2 -- Chart
1977 8 25 18 32.1 134.4 1001 0 6 -- Chart
1977 8 26 00 32.0 134.5 1004 0 6 -- Chart
1977 8 26 06 31.7 134.6 1004 0 6 -- Chart
1977 8 26 12 31.5 134.8 1006 0 6 -- Chart
1977 8 26 18 31.3 134.9 1006 0 6 -- Chart
1977 8 27 00 31.0 135.0 1006 0 6 -- Chart
1977 8 27 06 30.4 134.9 1007 0 6 -- Chart
1977 8 27 12 29.6 134.5 1008 0 6 -- Chart
1977 8 27 18 29.0 134.0 1007 0 6 -- Chart
Japan Meteorological Agency Best Track Data | Correction Date : 1992-10-21
< Typhoon 197706 1977 Season Typhoon 197708 >

Help